Time;durP1;ratioP1;P1;durP2;ratioP2;P2;SDS_P1;SDS_P2;PMS_P1;PMS_P2;Temp;Humidity;BMP_temperature;BMP_pressure;BME280_temperature;BME280_humidity;BME280_pressure;Samples;Min_cycle;Max_cycle;Signal;HPM_P1;HPM_P2
2022/02/27 00:01:27;;;;;;;42.30;25.00;;;;;;;-0.42;87.17;98153.89;107497;1273;37501;-73
2022/02/27 00:03:58;;;;;;;34.20;20.50;;;;;;;-0.47;87.40;98154.27;107503;1273;35891;-73
2022/02/27 00:06:29;;;;;;;32.80;21.80;;;;;;;-0.51;87.35;98155.04;107460;1273;33737;-72
2022/02/27 00:09:00;;;;;;;28.30;19.50;;;;;;;-0.51;87.10;98155.63;107463;1273;40029;-73
2022/02/27 00:11:31;;;;;;;37.30;20.00;;;;;;;-0.53;87.31;98155.08;107481;1273;33147;-73
2022/02/27 00:14:02;;;;;;;33.30;20.50;;;;;;;-0.54;87.21;98154.58;107449;1274;32605;-73
2022/02/27 00:16:34;;;;;;;32.80;20.70;;;;;;;-0.56;86.95;98158.75;107462;1273;41170;-73
2022/02/27 00:19:05;;;;;;;30.50;18.00;;;;;;;-0.60;86.89;98160.54;107495;1273;42396;-72
2022/02/27 00:21:36;;;;;;;29.20;19.50;;;;;;;-0.67;86.61;98156.26;107449;1273;37148;-73
2022/02/27 00:24:09;;;;;;;33.70;20.60;;;;;;;-0.71;86.37;98149.45;107499;1273;40000;-73
2022/02/27 00:26:40;;;;;;;27.90;19.20;;;;;;;-0.72;86.75;98151.15;107610;1273;29284;-73
2022/02/27 00:29:11;;;;;;;31.80;19.70;;;;;;;-0.77;86.57;98152.34;107532;1273;32816;-73
2022/02/27 00:31:42;;;;;;;31.40;19.30;;;;;;;-0.84;86.42;98153.48;107452;1273;33120;-73
2022/02/27 00:34:13;;;;;;;33.30;20.80;;;;;;;-0.85;86.60;98157.96;107554;1273;37679;-73
2022/02/27 00:36:46;;;;;;;50.80;25.60;;;;;;;-0.85;86.65;98160.05;107535;1273;38245;-73
2022/02/27 00:39:18;;;;;;;45.80;26.40;;;;;;;-0.85;86.39;98157.27;107500;1272;36833;-73
2022/02/27 00:41:49;;;;;;;52.40;27.20;;;;;;;-0.89;86.51;98162.60;107490;1273;38231;-73
2022/02/27 00:44:19;;;;;;;33.60;21.80;;;;;;;-0.98;86.32;98159.86;107440;1273;38138;-73
2022/02/27 00:46:51;;;;;;;28.90;19.50;;;;;;;-1.05;86.32;98160.34;107487;1273;41858;-73
2022/02/27 00:49:21;;;;;;;33.20;20.30;;;;;;;-1.09;86.54;98163.19;107367;1274;33550;-73
2022/02/27 00:51:52;;;;;;;33.30;18.90;;;;;;;-1.12;86.72;98162.70;107454;1273;38918;-73
2022/02/27 00:54:23;;;;;;;33.30;19.20;;;;;;;-1.14;86.65;98160.92;107487;1273;65304;-73
2022/02/27 00:56:54;;;;;;;29.30;17.60;;;;;;;-1.17;86.81;98159.38;107494;1273;35946;-73
2022/02/27 00:59:25;;;;;;;32.00;18.20;;;;;;;-1.24;86.69;98162.91;107434;1273;52589;-73
2022/02/27 01:01:56;;;;;;;30.20;18.90;;;;;;;-1.36;86.51;98164.52;107397;1273;40034;-73
2022/02/27 01:04:27;;;;;;;34.20;19.50;;;;;;;-1.47;86.59;98164.13;107489;1273;34440;-73
2022/02/27 01:06:58;;;;;;;33.60;20.60;;;;;;;-1.52;86.87;98165.21;107529;1273;31307;-73
2022/02/27 01:09:29;;;;;;;34.60;20.70;;;;;;;-1.50;87.27;98166.61;107502;1273;34248;-73
2022/02/27 01:11:59;;;;;;;32.70;21.30;;;;;;;-1.44;87.74;98162.56;107426;1274;42320;-73
2022/02/27 01:14:30;;;;;;;34.90;21.80;;;;;;;-1.37;88.10;98165.66;107524;1272;40729;-73
2022/02/27 01:17:05;;;;;;;34.90;21.60;;;;;;;-1.34;87.77;98162.11;107480;1273;41298;-73
2022/02/27 01:19:36;;;;;;;35.80;22.40;;;;;;;-1.35;87.58;98155.09;107469;1273;38314;-75
2022/02/27 01:22:08;;;;;;;37.10;23.10;;;;;;;-1.36;87.59;98155.88;107464;1273;44661;-73
2022/02/27 01:24:39;;;;;;;31.30;20.00;;;;;;;-1.36;87.51;98154.83;107590;1273;44532;-73
2022/02/27 01:27:10;;;;;;;34.90;21.10;;;;;;;-1.38;87.38;98154.52;107479;1273;33392;-73
2022/02/27 01:29:41;;;;;;;36.30;21.20;;;;;;;-1.39;87.42;98146.33;107520;1272;43093;-74
2022/02/27 01:32:12;;;;;;;34.40;20.00;;;;;;;-1.39;87.27;98146.68;107403;1273;31426;-73
2022/02/27 01:34:43;;;;;;;31.90;19.40;;;;;;;-1.39;87.32;98144.21;107568;1273;29281;-73
2022/02/27 01:37:14;;;;;;;30.40;19.80;;;;;;;-1.45;87.19;98147.26;107540;1273;32564;-74
2022/02/27 01:39:46;;;;;;;31.40;19.60;;;;;;;-1.49;87.27;98147.95;107496;1272;30618;-74
2022/02/27 01:42:18;;;;;;;32.00;20.60;;;;;;;-1.52;87.32;98148.70;107473;1273;42254;-74
2022/02/27 01:44:49;;;;;;;31.50;21.10;;;;;;;-1.52;87.43;98148.86;107481;1273;57894;-73
2022/02/27 01:47:20;;;;;;;31.30;20.60;;;;;;;-1.50;87.32;98150.23;107498;1273;42716;-73
2022/02/27 01:49:51;;;;;;;30.20;20.60;;;;;;;-1.49;87.44;98149.29;107456;1273;43023;-74
2022/02/27 01:52:22;;;;;;;35.40;21.00;;;;;;;-1.49;87.45;98146.68;107438;1273;47233;-74
2022/02/27 01:54:54;;;;;;;31.20;19.70;;;;;;;-1.47;87.48;98144.79;107441;1273;40456;-74
2022/02/27 01:57:25;;;;;;;32.90;21.20;;;;;;;-1.44;87.85;98144.30;107482;1273;37209;-74
2022/02/27 01:59:56;;;;;;;36.60;20.90;;;;;;;-1.43;87.75;98146.41;107506;1273;37205;-74
2022/02/27 02:02:27;;;;;;;31.50;20.50;;;;;;;-1.44;87.84;98138.90;107404;1273;43025;-74
2022/02/27 02:04:58;;;;;;;32.00;21.20;;;;;;;-1.49;88.20;98141.33;107503;1274;54427;-74
2022/02/27 02:07:29;;;;;;;31.90;20.20;;;;;;;-1.48;88.43;98141.05;107270;1274;175437;-74
2022/02/27 02:10:00;;;;;;;34.00;21.50;;;;;;;-1.44;88.64;98140.46;107508;1273;45762;-74
2022/02/27 02:12:31;;;;;;;34.70;21.90;;;;;;;-1.48;88.57;98144.27;107483;1273;30888;-74
2022/02/27 02:15:02;;;;;;;32.30;21.40;;;;;;;-1.52;88.08;98155.02;107507;1273;45121;-74
2022/02/27 02:17:36;;;;;;;34.70;22.20;;;;;;;-1.51;88.22;98156.80;107476;1273;65757;-74
2022/02/27 02:20:09;;;;;;;35.60;21.60;;;;;;;-1.47;88.00;98161.92;107528;1273;36071;-74
2022/02/27 02:22:40;;;;;;;34.70;21.90;;;;;;;-1.42;87.93;98161.55;107499;1273;47751;-74
2022/02/27 02:25:11;;;;;;;34.70;21.40;;;;;;;-1.38;87.87;98161.67;107535;1273;41948;-74
2022/02/27 02:27:43;;;;;;;39.40;22.40;;;;;;;-1.34;87.99;98161.85;107519;1273;83484;-74
2022/02/27 02:30:14;;;;;;;36.70;22.80;;;;;;;-1.29;88.07;98160.30;107575;1273;30920;-74
2022/02/27 02:32:57;;;;;;;35.40;22.60;;;;;;;-1.25;88.07;98167.48;107490;1273;33481;-75
2022/02/27 02:35:29;;;;;;;37.40;23.60;;;;;;;-1.19;88.13;98169.51;107562;1273;33246;-74
2022/02/27 02:38:00;;;;;;;36.40;23.90;;;;;;;-1.15;87.97;98171.44;107513;1273;65328;-74
2022/02/27 02:40:31;;;;;;;36.30;23.60;;;;;;;-1.10;88.01;98170.44;107508;1273;45003;-74
2022/02/27 02:43:05;;;;;;;37.20;22.80;;;;;;;-1.06;87.74;98170.48;107520;1273;29784;-74
2022/02/27 02:45:36;;;;;;;34.00;23.80;;;;;;;-1.08;87.69;98169.98;107510;1273;96664;-74
2022/02/27 02:48:07;;;;;;;34.40;23.50;;;;;;;-1.04;87.69;98173.41;107382;1274;45625;-74
2022/02/27 02:50:38;;;;;;;35.90;23.00;;;;;;;-1.00;87.98;98173.62;107476;1273;28881;-74
2022/02/27 02:53:09;;;;;;;36.60;24.40;;;;;;;-0.99;87.77;98171.15;107504;1273;35141;-74
2022/02/27 02:55:39;;;;;;;38.90;24.00;;;;;;;-1.07;87.57;98172.06;107585;1273;38459;-74
2022/02/27 02:58:11;;;;;;;37.40;25.10;;;;;;;-1.16;87.50;98178.92;107533;1273;30415;-74
2022/02/27 03:00:41;;;;;;;38.40;25.40;;;;;;;-1.22;87.72;98181.58;107496;1273;37266;-74
2022/02/27 03:03:12;;;;;;;39.60;26.00;;;;;;;-1.21;87.84;98181.44;107519;1273;32948;-74
2022/02/27 03:05:43;;;;;;;42.50;25.40;;;;;;;-1.15;88.15;98187.47;107583;1272;33574;-74
2022/02/27 03:08:14;;;;;;;41.80;26.90;;;;;;;-1.11;88.26;98186.90;107569;1273;40667;-74
2022/02/27 03:10:45;;;;;;;43.50;25.70;;;;;;;-1.07;88.24;98191.25;107506;1273;38951;-74
2022/02/27 03:13:16;;;;;;;43.80;27.30;;;;;;;-1.01;88.24;98194.25;107490;1273;38099;-74
2022/02/27 03:15:47;;;;;;;40.50;26.90;;;;;;;-0.95;88.12;98195.02;107512;1273;47871;-74
2022/02/27 03:18:18;;;;;;;41.80;26.60;;;;;;;-0.91;88.20;98192.64;107465;1272;51582;-74
2022/02/27 03:20:49;;;;;;;37.80;25.10;;;;;;;-0.91;88.08;98195.66;107514;1273;33028;-74
2022/02/27 03:23:20;;;;;;;36.10;25.00;;;;;;;-0.93;87.79;98196.16;107522;1273;40090;-74
2022/02/27 03:25:51;;;;;;;41.00;26.60;;;;;;;-1.04;88.03;98197.13;107536;1273;31743;-74
2022/02/27 03:28:22;;;;;;;45.90;28.10;;;;;;;-1.11;88.20;98196.79;107533;1273;30171;-74
2022/02/27 03:30:53;;;;;;;39.70;25.80;;;;;;;-1.16;88.13;98199.16;107517;1273;36050;-74
2022/02/27 03:33:24;;;;;;;44.10;28.00;;;;;;;-1.18;88.15;98205.70;107549;1273;32500;-74
2022/02/27 03:35:55;;;;;;;52.60;30.10;;;;;;;-1.20;88.49;98202.88;107537;1273;43163;-74
2022/02/27 03:38:26;;;;;;;49.30;31.40;;;;;;;-1.20;88.38;98209.32;107566;1272;32473;-74
2022/02/27 03:40:57;;;;;;;59.90;36.30;;;;;;;-1.14;88.58;98208.04;107508;1273;36949;-74
2022/02/27 03:43:30;;;;;;;57.60;36.10;;;;;;;-1.15;88.71;98209.79;107501;1271;55978;-74
2022/02/27 03:46:02;;;;;;;54.40;33.10;;;;;;;-1.12;88.71;98214.23;107550;1273;41054;-74
2022/02/27 03:48:33;;;;;;;58.00;36.50;;;;;;;-1.11;88.86;98219.47;107477;1273;44121;-74
2022/02/27 03:51:04;;;;;;;61.70;38.30;;;;;;;-1.14;88.75;98222.40;107499;1273;46179;-74
2022/02/27 03:53:35;;;;;;;59.00;36.70;;;;;;;-1.17;88.75;98222.23;107517;1273;45892;-74
2022/02/27 03:56:06;;;;;;;66.80;38.50;;;;;;;-1.17;89.05;98222.64;107503;1273;46847;-74
2022/02/27 03:58:37;;;;;;;62.80;38.70;;;;;;;-1.15;89.02;98219.87;107475;1273;33416;-74
2022/02/27 04:01:08;;;;;;;56.00;38.30;;;;;;;-1.12;89.00;98222.55;107472;1275;43483;-74
2022/02/27 04:03:39;;;;;;;61.20;38.80;;;;;;;-1.14;89.20;98222.95;107469;1273;44693;-74
2022/02/27 04:06:10;;;;;;;61.60;38.50;;;;;;;-1.20;89.27;98225.02;107569;1273;38102;-74
2022/02/27 04:08:41;;;;;;;67.80;41.60;;;;;;;-1.25;89.65;98225.95;107558;1273;42708;-74
2022/02/27 04:11:12;;;;;;;67.30;42.90;;;;;;;-1.22;89.68;98229.48;107511;1273;32842;-74
2022/02/27 04:13:43;;;;;;;68.60;42.90;;;;;;;-1.15;89.88;98227.91;107542;1273;44834;-74
2022/02/27 04:16:13;;;;;;;73.80;45.20;;;;;;;-1.12;90.01;98229.25;107570;1273;36689;-74
2022/02/27 04:18:44;;;;;;;79.60;46.60;;;;;;;-1.06;90.05;98233.31;107551;1273;45509;-73
2022/02/27 04:21:15;;;;;;;73.10;44.90;;;;;;;-1.03;89.79;98234.05;107462;1273;41597;-74
2022/02/27 04:23:46;;;;;;;77.60;46.80;;;;;;;-1.02;89.89;98227.83;107502;1273;45088;-74
2022/02/27 04:26:17;;;;;;;75.20;47.90;;;;;;;-1.02;90.12;98226.75;107515;1273;42062;-74
2022/02/27 04:28:48;;;;;;;79.40;49.30;;;;;;;-1.00;89.80;98228.11;107454;1273;49784;-74
2022/02/27 04:31:20;;;;;;;82.30;48.80;;;;;;;-0.98;89.83;98230.05;107474;1273;42068;-74
2022/02/27 04:33:51;;;;;;;75.00;46.20;;;;;;;-0.97;89.81;98229.44;107514;1273;44159;-74
2022/02/27 04:36:22;;;;;;;82.50;48.40;;;;;;;-0.96;89.72;98226.02;107529;1274;32554;-74
2022/02/27 04:38:53;;;;;;;77.60;46.50;;;;;;;-0.94;89.71;98221.06;107483;1273;43603;-73
2022/02/27 04:41:24;;;;;;;73.90;44.70;;;;;;;-0.95;89.70;98218.60;107485;1273;32408;-74
2022/02/27 04:43:55;;;;;;;77.90;48.70;;;;;;;-1.01;89.75;98224.77;107546;1272;39546;-74
2022/02/27 04:46:25;;;;;;;82.10;49.10;;;;;;;-1.06;89.72;98226.70;107576;1273;41271;-74
2022/02/27 04:48:56;;;;;;;80.90;50.10;;;;;;;-1.06;89.89;98221.86;107520;1273;45152;-74
2022/02/27 04:51:27;;;;;;;82.90;50.00;;;;;;;-1.05;89.82;98224.32;107489;1273;42554;-74
2022/02/27 04:53:58;;;;;;;81.80;50.90;;;;;;;-1.01;89.88;98224.61;107488;1273;42485;-73
2022/02/27 04:56:29;;;;;;;82.40;50.40;;;;;;;-0.98;89.78;98219.90;107495;1273;40629;-74
2022/02/27 04:58:59;;;;;;;81.00;50.20;;;;;;;-0.94;89.70;98223.27;107485;1273;39554;-74
2022/02/27 05:01:30;;;;;;;81.60;49.00;;;;;;;-0.91;89.98;98224.05;107455;1273;43830;-74
2022/02/27 05:04:01;;;;;;;83.50;50.10;;;;;;;-0.88;89.87;98224.27;107530;1273;42182;-73
2022/02/27 05:06:33;;;;;;;81.30;49.20;;;;;;;-0.86;89.57;98225.42;107537;1273;51295;-74
2022/02/27 05:09:04;;;;;;;86.60;51.90;;;;;;;-0.87;89.74;98230.86;107446;1273;51997;-73
2022/02/27 05:11:35;;;;;;;86.30;50.60;;;;;;;-0.84;89.63;98237.93;107470;1272;40404;-74
2022/02/27 05:14:06;;;;;;;85.50;50.80;;;;;;;-0.80;89.78;98237.48;107493;1274;44447;-74
2022/02/27 05:16:37;;;;;;;84.40;50.80;;;;;;;-0.77;89.90;98240.55;107528;1273;42181;-74
2022/02/27 05:19:08;;;;;;;84.20;50.60;;;;;;;-0.74;89.40;98241.84;107500;1273;43704;-73
2022/02/27 05:21:39;;;;;;;85.50;47.50;;;;;;;-0.73;89.43;98237.21;107449;1273;44171;-73
2022/02/27 05:24:11;;;;;;;90.30;49.90;;;;;;;-0.74;89.69;98238.98;107504;1273;42877;-74
2022/02/27 05:26:41;;;;;;;84.50;50.10;;;;;;;-0.74;89.53;98239.16;107572;1272;48100;-74
2022/02/27 05:29:12;;;;;;;83.50;49.50;;;;;;;-0.71;89.50;98244.07;107594;1273;63261;-73
2022/02/27 05:31:43;;;;;;;90.70;50.30;;;;;;;-0.71;89.27;98245.59;107521;1273;63802;-73
2022/02/27 05:34:14;;;;;;;86.90;49.10;;;;;;;-0.68;89.35;98247.80;107549;1272;41686;-74
2022/02/27 05:36:46;;;;;;;82.40;49.60;;;;;;;-0.67;89.31;98245.58;107494;1272;46332;-74
2022/02/27 05:39:17;;;;;;;86.50;49.60;;;;;;;-0.65;89.68;98248.98;107509;1273;44009;-74
2022/02/27 05:41:48;;;;;;;84.00;48.60;;;;;;;-0.64;89.74;98239.25;107492;1273;43080;-74
2022/02/27 05:44:19;;;;;;;82.80;48.60;;;;;;;-0.64;89.41;98235.77;107510;1273;44099;-73
2022/02/27 05:46:51;;;;;;;82.30;49.30;;;;;;;-0.63;89.43;98240.45;107477;1273;47461;-74
2022/02/27 05:49:22;;;;;;;84.80;50.70;;;;;;;-0.62;89.42;98237.39;107510;1273;35808;-73
2022/02/27 05:51:53;;;;;;;88.70;50.40;;;;;;;-0.61;89.48;98238.98;107503;1273;51320;-73
2022/02/27 05:54:24;;;;;;;81.70;50.10;;;;;;;-0.58;89.47;98241.30;107501;1273;42634;-74
2022/02/27 05:56:54;;;;;;;89.90;51.90;;;;;;;-0.58;89.29;98239.59;107512;1273;50308;-74
2022/02/27 05:59:26;;;;;;;109.90;61.60;;;;;;;-0.60;89.34;98245.61;107478;1273;44740;-74
2022/02/27 06:01:57;;;;;;;90.20;53.90;;;;;;;-0.61;89.32;98247.48;107532;1273;31394;-74
2022/02/27 06:04:28;;;;;;;87.30;52.60;;;;;;;-0.68;89.14;98250.46;107535;1273;47212;-74
2022/02/27 06:06:59;;;;;;;81.50;50.40;;;;;;;-0.75;89.40;98252.36;107499;1273;42345;-73
2022/02/27 06:09:31;;;;;;;87.60;51.90;;;;;;;-0.85;89.14;98255.73;107477;1273;52469;-73
2022/02/27 06:12:01;;;;;;;87.20;51.90;;;;;;;-0.92;89.23;98255.74;107471;1273;44670;-73
2022/02/27 06:14:32;;;;;;;98.60;54.60;;;;;;;-0.95;89.62;98255.69;107494;1273;42029;-74
2022/02/27 06:17:03;;;;;;;95.30;57.70;;;;;;;-0.88;89.85;98253.39;107518;1273;43429;-73
2022/02/27 06:19:34;;;;;;;93.00;55.20;;;;;;;-0.79;90.08;98252.40;107469;1273;46472;-73
2022/02/27 06:22:05;;;;;;;99.20;55.20;;;;;;;-0.72;90.07;98250.98;107472;1273;32008;-73
2022/02/27 06:24:36;;;;;;;93.30;57.30;;;;;;;-0.69;90.23;98256.55;107531;1273;39128;-74
2022/02/27 06:27:08;;;;;;;92.80;54.50;;;;;;;-0.64;90.17;98257.84;107520;1273;41664;-73
2022/02/27 06:29:39;;;;;;;90.60;54.20;;;;;;;-0.54;90.25;98260.00;107528;1273;33127;-73
2022/02/27 06:32:10;;;;;;;89.20;53.60;;;;;;;-0.45;90.12;98257.39;107456;1273;34820;-73
2022/02/27 06:34:42;;;;;;;90.40;54.20;;;;;;;-0.36;89.84;98265.84;107578;1273;34338;-73
2022/02/27 06:37:13;;;;;;;84.70;51.40;;;;;;;-0.24;90.11;98263.55;107557;1273;41196;-73
2022/02/27 06:39:44;;;;;;;81.10;50.20;;;;;;;-0.08;90.31;98266.32;107553;1273;42114;-74
2022/02/27 06:42:16;;;;;;;75.20;46.50;;;;;;;0.05;90.05;98262.16;107499;1273;40354;-74
2022/02/27 06:44:47;;;;;;;75.10;43.90;;;;;;;0.17;89.77;98264.28;107559;1273;33078;-74
2022/02/27 06:47:18;;;;;;;74.60;45.80;;;;;;;0.33;89.47;98270.08;107473;1273;61665;-74
2022/02/27 06:49:50;;;;;;;74.80;43.20;;;;;;;0.50;89.25;98272.33;107476;1273;45929;-74
2022/02/27 06:52:21;;;;;;;77.90;45.30;;;;;;;0.66;88.86;98275.21;107523;1273;37388;-74
2022/02/27 06:54:53;;;;;;;70.50;46.10;;;;;;;1.11;88.74;98267.08;107571;1273;33289;-74
2022/02/27 06:57:23;;;;;;;68.90;44.60;;;;;;;1.92;88.50;98268.87;107528;1273;38148;-74
2022/02/27 06:59:54;;;;;;;64.90;42.00;;;;;;;2.74;87.74;98272.20;107495;1274;37443;-74
2022/02/27 07:02:26;;;;;;;59.60;40.70;;;;;;;3.55;86.77;98272.11;107500;1273;30704;-74
2022/02/27 07:04:57;;;;;;;60.50;41.40;;;;;;;4.31;85.52;98280.27;107534;1273;37782;-74
2022/02/27 07:07:28;;;;;;;56.50;39.10;;;;;;;4.93;84.25;98286.08;107554;1273;33394;-74
2022/02/27 07:10:00;;;;;;;63.40;44.60;;;;;;;5.25;82.37;98287.63;107516;1273;36913;-74
2022/02/27 07:12:31;;;;;;;62.20;42.70;;;;;;;5.45;81.56;98292.17;107494;1273;40990;-74
2022/02/27 07:15:03;;;;;;;60.30;40.90;;;;;;;5.27;80.21;98291.22;107582;1273;31532;-74
2022/02/27 07:17:34;;;;;;;64.90;45.80;;;;;;;4.82;79.59;98297.98;107541;1273;41641;-73
2022/02/27 07:20:07;;;;;;;67.80;46.50;;;;;;;4.03;78.98;98300.77;107489;1273;44576;-74
2022/02/27 07:22:39;;;;;;;70.50;48.20;;;;;;;3.31;79.55;98304.45;107496;1273;46528;-74
2022/02/27 07:25:13;;;;;;;74.40;47.70;;;;;;;2.79;80.40;98311.24;107557;1273;43920;-74
2022/02/27 07:27:44;;;;;;;75.60;50.20;;;;;;;2.49;80.85;98314.20;107537;1274;44738;-74
2022/02/27 07:30:16;;;;;;;71.40;48.10;;;;;;;2.28;81.38;98315.13;107606;1273;37159;-74
2022/02/27 07:32:47;;;;;;;72.40;47.10;;;;;;;2.14;81.69;98322.59;107508;1273;28322;-74
2022/02/27 07:35:18;;;;;;;76.50;50.60;;;;;;;2.02;81.91;98326.42;107482;1273;55772;-74
2022/02/27 07:37:49;;;;;;;75.00;47.00;;;;;;;1.85;82.06;98331.55;107526;1273;38326;-74
2022/02/27 07:40:20;;;;;;;70.80;45.40;;;;;;;1.66;82.24;98339.28;107468;1273;45219;-74
2022/02/27 07:42:51;;;;;;;72.90;46.30;;;;;;;1.28;82.13;98338.58;107490;1273;40957;-74
2022/02/27 07:45:23;;;;;;;70.10;45.80;;;;;;;0.79;82.27;98337.74;107529;1272;41729;-74
2022/02/27 07:47:54;;;;;;;76.50;48.10;;;;;;;0.49;82.83;98333.81;107506;1273;40703;-74
2022/02/27 07:50:25;;;;;;;74.50;46.90;;;;;;;0.35;83.44;98338.95;107505;1273;52865;-74
2022/02/27 07:52:56;;;;;;;78.40;49.90;;;;;;;0.26;84.01;98341.34;107524;1273;41171;-74
2022/02/27 07:55:27;;;;;;;74.60;49.00;;;;;;;0.13;84.44;98342.55;107479;1273;50196;-73
2022/02/27 07:57:59;;;;;;;77.20;47.20;;;;;;;0.05;84.97;98334.77;107533;1275;40548;-73
2022/02/27 08:00:31;;;;;;;78.40;48.90;;;;;;;0.03;84.96;98336.97;107489;1273;66083;-73
2022/02/27 08:03:02;;;;;;;69.70;45.30;;;;;;;0.05;85.49;98334.05;107517;1273;40277;-74
2022/02/27 08:05:33;;;;;;;72.70;43.90;;;;;;;0.13;85.89;98339.27;107528;1273;38854;-73
2022/02/27 08:08:04;;;;;;;70.10;44.10;;;;;;;0.18;85.47;98336.29;107509;1273;40744;-73
2022/02/27 08:10:35;;;;;;;65.60;42.50;;;;;;;0.18;85.39;98334.92;107505;1273;40817;-73
2022/02/27 08:13:06;;;;;;;65.60;42.60;;;;;;;0.24;85.69;98333.48;107521;1273;41667;-73
2022/02/27 08:15:37;;;;;;;62.10;41.30;;;;;;;0.29;85.45;98332.62;107498;1273;44640;-73
2022/02/27 08:18:08;;;;;;;67.30;42.30;;;;;;;0.31;85.59;98335.52;107505;1273;42018;-73
2022/02/27 08:20:39;;;;;;;67.60;42.60;;;;;;;0.25;85.37;98339.17;107501;1273;39178;-73
2022/02/27 08:23:10;;;;;;;81.60;50.00;;;;;;;0.32;85.48;98342.50;107478;1273;74177;-73
2022/02/27 08:25:41;;;;;;;91.90;62.90;;;;;;;0.45;85.70;98336.25;107568;1273;41668;-73
2022/02/27 08:28:12;;;;;;;67.00;42.60;;;;;;;0.54;85.65;98334.27;107552;1273;40645;-73
2022/02/27 08:30:44;;;;;;;60.50;40.10;;;;;;;0.50;85.23;98336.52;107502;1273;40355;-73
2022/02/27 08:33:15;;;;;;;66.20;42.30;;;;;;;0.42;84.95;98337.89;107571;1273;42256;-73
2022/02/27 08:35:46;;;;;;;68.40;44.50;;;;;;;0.46;85.27;98336.79;107555;1273;38966;-74
2022/02/27 08:38:18;;;;;;;62.20;40.90;;;;;;;0.62;85.28;98339.72;107483;1273;45053;-73
2022/02/27 08:40:50;;;;;;;65.30;44.00;;;;;;;0.72;84.93;98336.64;107532;1274;32803;-74
2022/02/27 08:43:22;;;;;;;63.50;41.30;;;;;;;1.11;85.39;98339.40;107576;1273;43270;-73
2022/02/27 08:45:53;;;;;;;63.20;40.40;;;;;;;1.49;85.22;98336.30;107573;1273;33399;-73
2022/02/27 08:48:27;;;;;;;70.80;44.40;;;;;;;1.45;84.55;98338.23;107521;1273;42456;-73
2022/02/27 08:50:58;;;;;;;70.70;43.50;;;;;;;1.43;84.21;98337.02;107478;1274;34922;-73
2022/02/27 08:53:30;;;;;;;70.10;43.70;;;;;;;1.41;84.27;98338.70;107517;1274;39184;-73
2022/02/27 08:56:01;;;;;;;65.20;44.40;;;;;;;1.38;83.82;98336.08;107504;1274;35503;-73
2022/02/27 08:58:32;;;;;;;65.30;44.00;;;;;;;1.44;83.94;98335.00;107524;1275;46960;-73
2022/02/27 09:01:03;;;;;;;69.00;42.90;;;;;;;1.61;84.22;98333.86;107503;1275;34126;-73
2022/02/27 09:03:35;;;;;;;69.70;43.60;;;;;;;1.62;83.99;98332.19;107572;1274;29797;-73
2022/02/27 09:06:06;;;;;;;56.90;40.30;;;;;;;1.67;83.91;98332.10;107541;1274;36867;-73
2022/02/27 09:08:41;;;;;;;63.80;40.60;;;;;;;1.70;83.62;98333.35;107533;1274;38089;-73
2022/02/27 09:11:13;;;;;;;60.70;40.50;;;;;;;1.89;83.58;98332.17;107577;1274;34656;-73
2022/02/27 09:13:44;;;;;;;57.10;38.20;;;;;;;2.07;83.73;98328.27;107551;1274;39050;-73
2022/02/27 09:16:16;;;;;;;54.00;37.80;;;;;;;2.11;83.00;98329.39;107567;1274;65300;-73
2022/02/27 09:18:47;;;;;;;56.80;37.60;;;;;;;2.05;82.72;98328.23;107489;1274;49056;-74
2022/02/27 09:21:18;;;;;;;56.70;39.50;;;;;;;2.10;82.74;98328.59;107378;1274;33907;-73
2022/02/27 09:23:49;;;;;;;59.60;38.50;;;;;;;2.37;83.04;98328.95;107517;1274;36903;-73
2022/02/27 09:26:24;;;;;;;59.30;40.20;;;;;;;2.70;82.87;98322.96;107549;1274;32059;-73
2022/02/27 09:28:55;;;;;;;62.00;40.60;;;;;;;3.12;82.67;98317.35;107498;1274;46265;-73
2022/02/27 09:31:26;;;;;;;63.10;39.90;;;;;;;3.28;82.32;98319.00;107482;1274;35032;-73
2022/02/27 09:33:57;;;;;;;55.10;36.90;;;;;;;3.48;82.09;98317.23;107494;1274;34695;-73
2022/02/27 09:36:29;;;;;;;46.40;33.90;;;;;;;3.85;82.16;98310.31;107461;1274;39692;-73
2022/02/27 09:39:00;;;;;;;46.90;33.20;;;;;;;4.03;81.16;98315.65;107485;1274;39319;-73
2022/02/27 09:41:32;;;;;;;50.30;33.40;;;;;;;4.22;80.90;98312.40;107511;1274;32047;-73
2022/02/27 09:44:07;;;;;;;49.60;33.90;;;;;;;3.96;79.59;98311.52;107541;1274;32830;-73
2022/02/27 09:46:39;;;;;;;52.50;34.00;;;;;;;3.55;79.13;98313.70;107553;1274;26792;-73
2022/02/27 09:49:10;;;;;;;46.70;32.60;;;;;;;3.57;79.61;98309.58;107540;1274;38364;-73
2022/02/27 09:51:42;;;;;;;50.80;34.00;;;;;;;3.79;79.61;98311.40;107484;1274;37016;-73
2022/02/27 09:54:14;;;;;;;49.90;33.90;;;;;;;4.04;79.34;98308.55;107555;1274;37402;-73
2022/02/27 09:56:45;;;;;;;47.10;33.40;;;;;;;4.24;79.26;98307.39;107513;1274;36335;-73
2022/02/27 09:59:17;;;;;;;46.20;31.00;;;;;;;4.30;78.71;98306.15;107473;1274;67821;-73
2022/02/27 10:02:01;;;;;;;40.30;29.60;;;;;;;4.29;78.29;98306.67;107458;1274;31442;-74
2022/02/27 10:04:37;;;;;;;38.30;29.00;;;;;;;4.54;78.71;98306.40;107486;1274;33155;-73
2022/02/27 10:07:13;;;;;;;40.80;28.80;;;;;;;4.76;78.49;98307.54;107517;1274;58699;-73
2022/02/27 10:09:46;;;;;;;40.60;28.50;;;;;;;4.77;77.72;98307.02;107502;1274;41886;-73
2022/02/27 10:12:21;;;;;;;42.80;28.70;;;;;;;4.83;77.51;98307.65;107488;1274;51837;-73
2022/02/27 10:15:04;;;;;;;41.50;27.30;;;;;;;4.73;76.82;98308.05;107549;1273;37102;-74
2022/02/27 10:17:37;;;;;;;40.10;28.10;;;;;;;4.23;75.49;98304.02;107552;1274;40071;-73
2022/02/27 10:20:12;;;;;;;38.80;27.80;;;;;;;3.95;75.87;98301.65;107528;1274;38926;-73
2022/02/27 10:22:45;;;;;;;44.00;28.20;;;;;;;3.83;75.90;98294.60;107558;1274;40105;-73
2022/02/27 10:25:21;;;;;;;39.30;26.40;;;;;;;3.88;76.29;98297.12;107532;1274;38494;-74
2022/02/27 10:27:55;;;;;;;39.80;27.30;;;;;;;3.87;75.95;98293.77;107473;1273;45430;-73
2022/02/27 10:30:28;;;;;;;45.10;30.00;;;;;;;3.87;76.18;98294.17;107535;1274;32772;-73
2022/02/27 10:33:01;;;;;;;46.10;28.40;;;;;;;4.12;76.51;98291.58;107468;1274;40061;-73
2022/02/27 10:35:37;;;;;;;40.40;27.60;;;;;;;4.44;76.51;98283.63;107518;1274;40290;-73
2022/02/27 10:38:10;;;;;;;43.20;28.90;;;;;;;4.56;75.34;98283.17;107512;1273;40604;-73
2022/02/27 10:40:45;;;;;;;37.90;27.50;;;;;;;4.30;74.44;98281.11;107542;1274;44748;-73
2022/02/27 10:43:17;;;;;;;40.80;27.90;;;;;;;4.22;74.82;98276.56;107541;1274;45009;-74
2022/02/27 10:46:04;;;;;;;44.50;30.40;;;;;;;4.31;74.94;98276.64;107503;1274;43940;-74
2022/02/27 10:48:35;;;;;;;45.20;30.70;;;;;;;4.25;74.25;98273.90;107511;1274;41829;-74
2022/02/27 10:51:08;;;;;;;40.90;28.00;;;;;;;4.42;75.21;98271.50;107557;1274;28500;-73
2022/02/27 10:53:41;;;;;;;33.50;22.50;;;;;;;4.69;75.20;98267.03;107523;1274;31786;-74
2022/02/27 10:56:14;;;;;;;29.80;20.70;;;;;;;4.85;73.98;98261.73;107520;1274;36272;-74
2022/02/27 10:58:48;;;;;;;23.90;16.00;;;;;;;4.93;73.07;98256.64;107559;1274;41973;-73
2022/02/27 11:01:23;;;;;;;24.20;17.20;;;;;;;4.80;71.71;98260.02;107496;1274;35594;-74
2022/02/27 11:03:56;;;;;;;27.00;17.10;;;;;;;4.67;71.46;98255.04;107514;1274;40863;-74
2022/02/27 11:06:28;;;;;;;26.70;17.60;;;;;;;4.62;70.83;98253.08;107485;1274;39034;-74
2022/02/27 11:09:01;;;;;;;27.30;19.50;;;;;;;4.73;71.27;98249.73;107501;1274;41287;-74
2022/02/27 11:11:33;;;;;;;28.50;19.60;;;;;;;4.74;71.03;98245.41;107479;1274;40499;-74
2022/02/27 11:14:07;;;;;;;30.90;20.30;;;;;;;4.95;71.78;98241.96;107529;1274;31033;-74
2022/02/27 11:16:38;;;;;;;26.60;18.40;;;;;;;5.23;71.95;98236.17;107544;1274;32485;-74
2022/02/27 11:19:10;;;;;;;25.90;19.00;;;;;;;5.35;71.37;98233.52;107502;1274;38697;-74
2022/02/27 11:21:42;;;;;;;25.50;18.50;;;;;;;5.50;70.98;98225.77;107487;1274;37428;-75
2022/02/27 11:24:15;;;;;;;23.90;15.90;;;;;;;5.73;71.25;98224.86;107543;1274;32981;-74
2022/02/27 11:26:46;;;;;;;21.90;14.30;;;;;;;5.98;70.36;98216.90;107552;1274;32738;-74
2022/02/27 11:29:17;;;;;;;30.10;17.10;;;;;;;6.05;69.18;98213.36;107460;1274;40028;-74
2022/02/27 11:31:49;;;;;;;26.40;17.60;;;;;;;6.28;69.88;98209.59;107393;1273;48642;-75